sensor_id;sensor_type;location;lat;lon;timestamp;P1;durP1;ratioP1;P2;durP2;ratioP2
7239;SDS011;3661;53.288;10.458;2022-10-31T00:02:05;28.95;;;27.52;;
7239;SDS011;3661;53.288;10.458;2022-10-31T00:04:37;37.97;;;35.83;;
7239;SDS011;3661;53.288;10.458;2022-10-31T00:07:10;28.27;;;26.67;;
7239;SDS011;3661;53.288;10.458;2022-10-31T00:09:43;32.58;;;31.00;;
7239;SDS011;3661;53.288;10.458;2022-10-31T00:12:15;27.88;;;26.30;;
7239;SDS011;3661;53.288;10.458;2022-10-31T00:14:47;31.10;;;29.52;;
7239;SDS011;3661;53.288;10.458;2022-10-31T00:17:19;28.77;;;26.75;;
7239;SDS011;3661;53.288;10.458;2022-10-31T00:19:51;27.88;;;26.50;;
7239;SDS011;3661;53.288;10.458;2022-10-31T00:22:24;28.50;;;26.92;;
7239;SDS011;3661;53.288;10.458;2022-10-31T00:24:58;26.53;;;25.13;;
7239;SDS011;3661;53.288;10.458;2022-10-31T00:27:30;31.23;;;29.67;;
7239;SDS011;3661;53.288;10.458;2022-10-31T00:30:02;25.45;;;23.98;;
7239;SDS011;3661;53.288;10.458;2022-10-31T00:32:34;28.27;;;26.87;;
7239;SDS011;3661;53.288;10.458;2022-10-31T00:35:06;23.47;;;22.10;;
7239;SDS011;3661;53.288;10.458;2022-10-31T00:37:38;26.98;;;25.55;;
7239;SDS011;3661;53.288;10.458;2022-10-31T00:40:12;29.10;;;27.55;;
7239;SDS011;3661;53.288;10.458;2022-10-31T00:42:44;30.05;;;28.65;;
7239;SDS011;3661;53.288;10.458;2022-10-31T00:45:16;27.83;;;26.50;;
7239;SDS011;3661;53.288;10.458;2022-10-31T00:47:48;37.35;;;35.88;;
7239;SDS011;3661;53.288;10.458;2022-10-31T00:50:21;31.40;;;30.00;;
7239;SDS011;3661;53.288;10.458;2022-10-31T00:52:53;30.60;;;29.30;;
7239;SDS011;3661;53.288;10.458;2022-10-31T00:55:26;40.78;;;38.97;;
7239;SDS011;3661;53.288;10.458;2022-10-31T00:57:59;32.95;;;31.35;;
7239;SDS011;3661;53.288;10.458;2022-10-31T01:00:31;32.40;;;30.60;;
7239;SDS011;3661;53.288;10.458;2022-10-31T01:03:05;34.92;;;33.50;;
7239;SDS011;3661;53.288;10.458;2022-10-31T01:05:37;33.35;;;31.85;;
7239;SDS011;3661;53.288;10.458;2022-10-31T01:08:09;28.60;;;27.10;;
7239;SDS011;3661;53.288;10.458;2022-10-31T01:10:42;30.90;;;29.50;;
7239;SDS011;3661;53.288;10.458;2022-10-31T01:13:15;35.65;;;33.90;;
7239;SDS011;3661;53.288;10.458;2022-10-31T01:15:53;27.17;;;25.60;;
7239;SDS011;3661;53.288;10.458;2022-10-31T01:18:25;25.83;;;24.27;;
7239;SDS011;3661;53.288;10.458;2022-10-31T01:20:59;30.95;;;29.35;;
7239;SDS011;3661;53.288;10.458;2022-10-31T01:23:32;25.33;;;23.75;;
7239;SDS011;3661;53.288;10.458;2022-10-31T01:26:07;26.88;;;25.40;;
7239;SDS011;3661;53.288;10.458;2022-10-31T01:28:43;28.05;;;26.65;;
7239;SDS011;3661;53.288;10.458;2022-10-31T01:31:18;28.87;;;27.27;;
7239;SDS011;3661;53.288;10.458;2022-10-31T01:33:51;27.40;;;25.92;;
7239;SDS011;3661;53.288;10.458;2022-10-31T01:36:25;29.23;;;27.83;;
7239;SDS011;3661;53.288;10.458;2022-10-31T01:39:02;28.67;;;27.20;;
7239;SDS011;3661;53.288;10.458;2022-10-31T01:41:38;28.27;;;26.80;;
7239;SDS011;3661;53.288;10.458;2022-10-31T01:47:38;37.77;;;36.00;;
7239;SDS011;3661;53.288;10.458;2022-10-31T01:50:15;31.77;;;30.00;;
7239;SDS011;3661;53.288;10.458;2022-10-31T01:52:58;32.13;;;30.52;;
7239;SDS011;3661;53.288;10.458;2022-10-31T01:55:32;29.15;;;27.55;;
7239;SDS011;3661;53.288;10.458;2022-10-31T01:58:09;29.13;;;27.37;;
7239;SDS011;3661;53.288;10.458;2022-10-31T02:00:45;23.63;;;22.33;;
7239;SDS011;3661;53.288;10.458;2022-10-31T02:03:22;24.52;;;23.23;;
7239;SDS011;3661;53.288;10.458;2022-10-31T02:05:55;24.55;;;23.20;;
7239;SDS011;3661;53.288;10.458;2022-10-31T02:08:29;28.95;;;27.35;;
7239;SDS011;3661;53.288;10.458;2022-10-31T02:11:03;30.45;;;29.15;;
7239;SDS011;3661;53.288;10.458;2022-10-31T02:13:39;31.85;;;30.35;;
7239;SDS011;3661;53.288;10.458;2022-10-31T02:16:13;26.35;;;24.90;;
7239;SDS011;3661;53.288;10.458;2022-10-31T02:18:45;34.42;;;32.92;;
7239;SDS011;3661;53.288;10.458;2022-10-31T02:21:18;34.70;;;33.17;;
7239;SDS011;3661;53.288;10.458;2022-10-31T02:27:11;28.00;;;26.08;;
7239;SDS011;3661;53.288;10.458;2022-10-31T02:30:04;30.38;;;28.80;;
7239;SDS011;3661;53.288;10.458;2022-10-31T02:35:44;25.67;;;24.27;;
7239;SDS011;3661;53.288;10.458;2022-10-31T02:38:28;27.80;;;26.20;;
7239;SDS011;3661;53.288;10.458;2022-10-31T02:41:15;28.05;;;26.60;;
7239;SDS011;3661;53.288;10.458;2022-10-31T02:43:54;24.95;;;23.60;;
7239;SDS011;3661;53.288;10.458;2022-10-31T02:46:36;32.30;;;30.85;;
7239;SDS011;3661;53.288;10.458;2022-10-31T02:49:14;29.45;;;27.45;;
7239;SDS011;3661;53.288;10.458;2022-10-31T02:51:54;33.00;;;31.43;;
7239;SDS011;3661;53.288;10.458;2022-10-31T02:54:28;31.73;;;30.08;;
7239;SDS011;3661;53.288;10.458;2022-10-31T02:57:02;24.38;;;23.00;;
7239;SDS011;3661;53.288;10.458;2022-10-31T02:59:42;25.70;;;23.93;;
7239;SDS011;3661;53.288;10.458;2022-10-31T03:05:34;31.33;;;29.70;;
7239;SDS011;3661;53.288;10.458;2022-10-31T03:08:17;35.53;;;33.95;;
7239;SDS011;3661;53.288;10.458;2022-10-31T03:10:57;25.90;;;24.40;;
7239;SDS011;3661;53.288;10.458;2022-10-31T03:13:32;24.10;;;22.52;;
7239;SDS011;3661;53.288;10.458;2022-10-31T03:16:11;24.02;;;22.63;;
7239;SDS011;3661;53.288;10.458;2022-10-31T03:18:49;26.50;;;24.67;;
7239;SDS011;3661;53.288;10.458;2022-10-31T03:21:30;27.45;;;25.95;;
7239;SDS011;3661;53.288;10.458;2022-10-31T03:24:09;29.83;;;27.90;;
7239;SDS011;3661;53.288;10.458;2022-10-31T03:26:43;35.15;;;33.15;;
7239;SDS011;3661;53.288;10.458;2022-10-31T03:29:19;27.83;;;26.23;;
7239;SDS011;3661;53.288;10.458;2022-10-31T03:31:55;28.38;;;26.67;;
7239;SDS011;3661;53.288;10.458;2022-10-31T03:34:31;29.17;;;27.53;;
7239;SDS011;3661;53.288;10.458;2022-10-31T03:37:10;30.80;;;28.85;;
7239;SDS011;3661;53.288;10.458;2022-10-31T03:39:47;30.87;;;29.07;;
7239;SDS011;3661;53.288;10.458;2022-10-31T03:42:21;31.85;;;30.00;;
7239;SDS011;3661;53.288;10.458;2022-10-31T03:44:55;29.35;;;27.50;;
7239;SDS011;3661;53.288;10.458;2022-10-31T03:47:31;31.95;;;30.05;;
7239;SDS011;3661;53.288;10.458;2022-10-31T03:50:04;34.72;;;32.67;;
7239;SDS011;3661;53.288;10.458;2022-10-31T03:52:41;40.30;;;38.10;;
7239;SDS011;3661;53.288;10.458;2022-10-31T03:55:18;39.97;;;37.30;;
7239;SDS011;3661;53.288;10.458;2022-10-31T03:57:57;37.90;;;35.40;;
7239;SDS011;3661;53.288;10.458;2022-10-31T04:00:32;39.50;;;36.53;;
7239;SDS011;3661;53.288;10.458;2022-10-31T04:03:09;46.20;;;43.20;;
7239;SDS011;3661;53.288;10.458;2022-10-31T04:05:45;50.35;;;46.92;;
7239;SDS011;3661;53.288;10.458;2022-10-31T04:08:20;42.22;;;39.42;;
7239;SDS011;3661;53.288;10.458;2022-10-31T04:10:58;46.33;;;42.95;;
7239;SDS011;3661;53.288;10.458;2022-10-31T04:13:36;48.38;;;45.13;;
7239;SDS011;3661;53.288;10.458;2022-10-31T04:16:11;54.05;;;50.47;;
7239;SDS011;3661;53.288;10.458;2022-10-31T04:18:47;48.43;;;45.00;;
7239;SDS011;3661;53.288;10.458;2022-10-31T04:21:26;45.63;;;42.55;;
7239;SDS011;3661;53.288;10.458;2022-10-31T04:24:03;60.23;;;56.40;;
7239;SDS011;3661;53.288;10.458;2022-10-31T04:26:36;56.13;;;53.00;;
7239;SDS011;3661;53.288;10.458;2022-10-31T04:29:08;49.30;;;46.07;;
7239;SDS011;3661;53.288;10.458;2022-10-31T04:31:40;47.00;;;43.88;;
7239;SDS011;3661;53.288;10.458;2022-10-31T04:34:13;52.83;;;49.63;;
7239;SDS011;3661;53.288;10.458;2022-10-31T04:36:45;48.15;;;45.03;;
7239;SDS011;3661;53.288;10.458;2022-10-31T04:39:19;46.90;;;43.90;;
7239;SDS011;3661;53.288;10.458;2022-10-31T04:41:51;54.70;;;51.42;;
7239;SDS011;3661;53.288;10.458;2022-10-31T04:44:25;54.75;;;51.40;;
7239;SDS011;3661;53.288;10.458;2022-10-31T04:47:06;54.78;;;51.70;;
7239;SDS011;3661;53.288;10.458;2022-10-31T04:49:41;48.05;;;44.72;;
7239;SDS011;3661;53.288;10.458;2022-10-31T04:52:15;48.38;;;45.28;;
7239;SDS011;3661;53.288;10.458;2022-10-31T04:54:49;51.10;;;47.53;;
7239;SDS011;3661;53.288;10.458;2022-10-31T04:57:22;51.70;;;48.63;;
7239;SDS011;3661;53.288;10.458;2022-10-31T04:59:55;49.20;;;46.10;;
7239;SDS011;3661;53.288;10.458;2022-10-31T05:02:27;49.93;;;46.70;;
7239;SDS011;3661;53.288;10.458;2022-10-31T05:04:59;58.70;;;55.40;;
7239;SDS011;3661;53.288;10.458;2022-10-31T05:07:33;46.25;;;42.95;;
7239;SDS011;3661;53.288;10.458;2022-10-31T05:10:13;53.27;;;50.03;;
7239;SDS011;3661;53.288;10.458;2022-10-31T05:12:47;55.55;;;52.20;;
7239;SDS011;3661;53.288;10.458;2022-10-31T05:15:22;49.83;;;46.47;;
7239;SDS011;3661;53.288;10.458;2022-10-31T05:17:57;48.10;;;45.07;;
7239;SDS011;3661;53.288;10.458;2022-10-31T05:20:30;45.35;;;42.45;;
7239;SDS011;3661;53.288;10.458;2022-10-31T05:23:02;48.58;;;45.22;;
7239;SDS011;3661;53.288;10.458;2022-10-31T05:25:36;60.92;;;57.00;;
7239;SDS011;3661;53.288;10.458;2022-10-31T05:28:08;59.05;;;55.47;;
7239;SDS011;3661;53.288;10.458;2022-10-31T05:30:43;53.17;;;49.90;;
7239;SDS011;3661;53.288;10.458;2022-10-31T05:33:15;51.35;;;48.10;;
7239;SDS011;3661;53.288;10.458;2022-10-31T05:35:47;50.72;;;47.50;;
7239;SDS011;3661;53.288;10.458;2022-10-31T05:38:22;42.95;;;40.20;;
7239;SDS011;3661;53.288;10.458;2022-10-31T05:40:57;45.10;;;41.80;;
7239;SDS011;3661;53.288;10.458;2022-10-31T05:43:31;47.63;;;44.60;;
7239;SDS011;3661;53.288;10.458;2022-10-31T05:46:03;47.92;;;44.53;;
7239;SDS011;3661;53.288;10.458;2022-10-31T05:48:35;45.08;;;42.00;;
7239;SDS011;3661;53.288;10.458;2022-10-31T05:51:07;46.35;;;43.15;;
7239;SDS011;3661;53.288;10.458;2022-10-31T05:53:39;43.60;;;40.50;;
7239;SDS011;3661;53.288;10.458;2022-10-31T05:56:13;51.92;;;48.40;;
7239;SDS011;3661;53.288;10.458;2022-10-31T05:58:45;48.45;;;45.45;;
7239;SDS011;3661;53.288;10.458;2022-10-31T06:01:18;48.72;;;45.22;;
7239;SDS011;3661;53.288;10.458;2022-10-31T06:03:50;45.47;;;42.20;;
7239;SDS011;3661;53.288;10.458;2022-10-31T06:06:22;45.33;;;42.03;;
7239;SDS011;3661;53.288;10.458;2022-10-31T06:08:54;48.40;;;45.08;;
7239;SDS011;3661;53.288;10.458;2022-10-31T06:11:30;44.75;;;41.28;;
7239;SDS011;3661;53.288;10.458;2022-10-31T06:14:03;51.67;;;48.20;;
7239;SDS011;3661;53.288;10.458;2022-10-31T06:16:36;54.00;;;50.40;;
7239;SDS011;3661;53.288;10.458;2022-10-31T06:19:08;48.70;;;45.43;;
7239;SDS011;3661;53.288;10.458;2022-10-31T06:21:40;46.38;;;43.08;;
7239;SDS011;3661;53.288;10.458;2022-10-31T06:24:13;45.40;;;41.92;;
7239;SDS011;3661;53.288;10.458;2022-10-31T06:26:47;44.05;;;40.83;;
7239;SDS011;3661;53.288;10.458;2022-10-31T06:29:19;47.78;;;44.50;;
7239;SDS011;3661;53.288;10.458;2022-10-31T06:31:52;46.53;;;43.47;;
7239;SDS011;3661;53.288;10.458;2022-10-31T06:34:24;45.03;;;41.70;;
7239;SDS011;3661;53.288;10.458;2022-10-31T06:36:56;44.28;;;41.33;;
7239;SDS011;3661;53.288;10.458;2022-10-31T06:39:28;47.95;;;44.97;;
7239;SDS011;3661;53.288;10.458;2022-10-31T06:42:02;47.13;;;44.08;;
7239;SDS011;3661;53.288;10.458;2022-10-31T06:44:34;52.13;;;48.53;;
7239;SDS011;3661;53.288;10.458;2022-10-31T06:47:06;48.17;;;45.10;;
7239;SDS011;3661;53.288;10.458;2022-10-31T06:49:38;42.45;;;39.25;;
7239;SDS011;3661;53.288;10.458;2022-10-31T06:52:10;46.10;;;43.08;;
7239;SDS011;3661;53.288;10.458;2022-10-31T06:54:42;48.15;;;44.90;;
7239;SDS011;3661;53.288;10.458;2022-10-31T06:57:16;49.75;;;46.22;;
7239;SDS011;3661;53.288;10.458;2022-10-31T06:59:48;41.92;;;38.50;;
7239;SDS011;3661;53.288;10.458;2022-10-31T07:02:20;41.88;;;38.95;;
7239;SDS011;3661;53.288;10.458;2022-10-31T07:04:52;42.85;;;39.58;;
7239;SDS011;3661;53.288;10.458;2022-10-31T07:07:24;49.63;;;46.42;;
7239;SDS011;3661;53.288;10.458;2022-10-31T07:09:57;46.90;;;44.00;;
7239;SDS011;3661;53.288;10.458;2022-10-31T07:12:30;48.70;;;45.80;;
7239;SDS011;3661;53.288;10.458;2022-10-31T07:15:03;46.42;;;43.63;;
7239;SDS011;3661;53.288;10.458;2022-10-31T07:17:35;48.45;;;45.20;;
7239;SDS011;3661;53.288;10.458;2022-10-31T07:20:08;44.42;;;41.60;;
7239;SDS011;3661;53.288;10.458;2022-10-31T07:22:40;37.60;;;35.10;;
7239;SDS011;3661;53.288;10.458;2022-10-31T07:25:13;38.75;;;36.08;;
7239;SDS011;3661;53.288;10.458;2022-10-31T07:27:46;38.30;;;35.83;;
7239;SDS011;3661;53.288;10.458;2022-10-31T07:30:18;44.22;;;41.83;;
7239;SDS011;3661;53.288;10.458;2022-10-31T07:32:52;39.83;;;37.22;;
7239;SDS011;3661;53.288;10.458;2022-10-31T07:35:25;44.92;;;42.10;;
7239;SDS011;3661;53.288;10.458;2022-10-31T07:38:06;44.08;;;41.47;;
7239;SDS011;3661;53.288;10.458;2022-10-31T07:40:39;42.40;;;39.80;;
7239;SDS011;3661;53.288;10.458;2022-10-31T07:43:12;41.95;;;39.28;;
7239;SDS011;3661;53.288;10.458;2022-10-31T07:45:48;40.63;;;38.23;;
7239;SDS011;3661;53.288;10.458;2022-10-31T07:48:21;45.13;;;42.47;;
7239;SDS011;3661;53.288;10.458;2022-10-31T07:50:53;41.83;;;39.50;;
7239;SDS011;3661;53.288;10.458;2022-10-31T07:53:26;44.30;;;41.75;;
7239;SDS011;3661;53.288;10.458;2022-10-31T07:55:58;33.22;;;31.02;;
7239;SDS011;3661;53.288;10.458;2022-10-31T07:58:32;35.03;;;32.60;;
7239;SDS011;3661;53.288;10.458;2022-10-31T08:01:04;34.88;;;32.70;;
7239;SDS011;3661;53.288;10.458;2022-10-31T08:03:37;35.77;;;33.67;;
7239;SDS011;3661;53.288;10.458;2022-10-31T08:06:09;44.30;;;41.50;;
7239;SDS011;3661;53.288;10.458;2022-10-31T08:08:42;40.67;;;38.47;;
7239;SDS011;3661;53.288;10.458;2022-10-31T08:11:14;38.10;;;35.63;;
7239;SDS011;3661;53.288;10.458;2022-10-31T08:13:48;41.28;;;38.78;;
7239;SDS011;3661;53.288;10.458;2022-10-31T08:16:20;37.85;;;35.58;;
7239;SDS011;3661;53.288;10.458;2022-10-31T08:18:52;37.63;;;35.37;;
7239;SDS011;3661;53.288;10.458;2022-10-31T08:21:25;40.95;;;38.60;;
7239;SDS011;3661;53.288;10.458;2022-10-31T08:23:58;34.92;;;32.67;;
7239;SDS011;3661;53.288;10.458;2022-10-31T08:26:30;38.03;;;35.65;;
7239;SDS011;3661;53.288;10.458;2022-10-31T08:29:04;40.00;;;37.63;;
7239;SDS011;3661;53.288;10.458;2022-10-31T08:31:36;33.63;;;31.58;;
7239;SDS011;3661;53.288;10.458;2022-10-31T08:34:08;34.58;;;32.22;;
7239;SDS011;3661;53.288;10.458;2022-10-31T08:36:40;33.78;;;31.67;;
7239;SDS011;3661;53.288;10.458;2022-10-31T08:39:15;35.80;;;33.53;;
7239;SDS011;3661;53.288;10.458;2022-10-31T08:41:47;38.53;;;36.20;;
7239;SDS011;3661;53.288;10.458;2022-10-31T08:44:20;34.87;;;32.77;;
7239;SDS011;3661;53.288;10.458;2022-10-31T08:46:52;38.15;;;35.92;;
7239;SDS011;3661;53.288;10.458;2022-10-31T08:49:25;36.08;;;34.15;;
7239;SDS011;3661;53.288;10.458;2022-10-31T08:51:57;34.53;;;32.33;;
7239;SDS011;3661;53.288;10.458;2022-10-31T08:54:29;34.38;;;32.22;;
7239;SDS011;3661;53.288;10.458;2022-10-31T08:57:01;35.70;;;33.22;;
7239;SDS011;3661;53.288;10.458;2022-10-31T08:59:35;35.33;;;33.03;;
7239;SDS011;3661;53.288;10.458;2022-10-31T09:02:07;36.65;;;34.42;;
7239;SDS011;3661;53.288;10.458;2022-10-31T09:04:44;35.20;;;33.20;;
7239;SDS011;3661;53.288;10.458;2022-10-31T09:07:18;32.72;;;30.70;;
7239;SDS011;3661;53.288;10.458;2022-10-31T09:09:56;39.13;;;36.42;;
7239;SDS011;3661;53.288;10.458;2022-10-31T09:12:28;35.17;;;32.97;;
7239;SDS011;3661;53.288;10.458;2022-10-31T09:15:02;31.25;;;29.42;;
7239;SDS011;3661;53.288;10.458;2022-10-31T09:17:36;42.00;;;39.75;;
7239;SDS011;3661;53.288;10.458;2022-10-31T09:20:09;32.58;;;30.60;;
7239;SDS011;3661;53.288;10.458;2022-10-31T09:22:42;34.17;;;32.15;;
7239;SDS011;3661;53.288;10.458;2022-10-31T09:25:15;35.70;;;33.40;;
7239;SDS011;3661;53.288;10.458;2022-10-31T09:27:47;34.80;;;32.90;;
7239;SDS011;3661;53.288;10.458;2022-10-31T09:30:21;37.20;;;35.17;;
7239;SDS011;3661;53.288;10.458;2022-10-31T09:32:54;34.88;;;32.75;;
7239;SDS011;3661;53.288;10.458;2022-10-31T09:35:27;33.08;;;31.08;;
7239;SDS011;3661;53.288;10.458;2022-10-31T09:38:00;40.75;;;38.70;;
7239;SDS011;3661;53.288;10.458;2022-10-31T09:40:34;35.78;;;33.72;;
7239;SDS011;3661;53.288;10.458;2022-10-31T09:43:09;34.50;;;32.47;;
7239;SDS011;3661;53.288;10.458;2022-10-31T09:45:50;39.63;;;37.73;;
7239;SDS011;3661;53.288;10.458;2022-10-31T09:48:37;42.65;;;40.25;;
7239;SDS011;3661;53.288;10.458;2022-10-31T09:51:20;40.73;;;38.43;;
7239;SDS011;3661;53.288;10.458;2022-10-31T09:53:58;40.50;;;38.17;;
7239;SDS011;3661;53.288;10.458;2022-10-31T09:56:36;46.17;;;43.78;;
7239;SDS011;3661;53.288;10.458;2022-10-31T09:59:11;41.30;;;38.92;;
7239;SDS011;3661;53.288;10.458;2022-10-31T10:01:50;37.97;;;35.88;;
7239;SDS011;3661;53.288;10.458;2022-10-31T10:04:31;34.45;;;32.45;;
7239;SDS011;3661;53.288;10.458;2022-10-31T10:07:13;32.63;;;30.60;;
7239;SDS011;3661;53.288;10.458;2022-10-31T10:09:50;34.40;;;32.43;;
7239;SDS011;3661;53.288;10.458;2022-10-31T10:12:36;31.70;;;29.90;;
7239;SDS011;3661;53.288;10.458;2022-10-31T10:15:33;39.80;;;37.87;;
7239;SDS011;3661;53.288;10.458;2022-10-31T10:18:17;34.85;;;32.95;;
7239;SDS011;3661;53.288;10.458;2022-10-31T10:21:03;33.05;;;31.30;;
7239;SDS011;3661;53.288;10.458;2022-10-31T10:23:49;31.98;;;30.42;;
7239;SDS011;3661;53.288;10.458;2022-10-31T10:26:34;35.30;;;33.33;;
7239;SDS011;3661;53.288;10.458;2022-10-31T10:29:12;38.58;;;36.38;;
7239;SDS011;3661;53.288;10.458;2022-10-31T10:31:53;44.30;;;42.22;;
7239;SDS011;3661;53.288;10.458;2022-10-31T10:34:32;47.10;;;45.13;;
7239;SDS011;3661;53.288;10.458;2022-10-31T10:37:12;42.73;;;40.93;;
7239;SDS011;3661;53.288;10.458;2022-10-31T10:39:53;47.13;;;45.28;;
7239;SDS011;3661;53.288;10.458;2022-10-31T10:42:27;33.25;;;31.70;;
7239;SDS011;3661;53.288;10.458;2022-10-31T10:45:19;45.05;;;43.17;;
7239;SDS011;3661;53.288;10.458;2022-10-31T10:48:12;39.42;;;37.65;;
7239;SDS011;3661;53.288;10.458;2022-10-31T10:50:48;28.27;;;26.98;;
7239;SDS011;3661;53.288;10.458;2022-10-31T10:53:25;36.22;;;34.53;;
7239;SDS011;3661;53.288;10.458;2022-10-31T10:56:20;31.53;;;29.83;;
7239;SDS011;3661;53.288;10.458;2022-10-31T10:59:01;31.67;;;30.20;;
7239;SDS011;3661;53.288;10.458;2022-10-31T11:01:35;34.53;;;32.75;;
7239;SDS011;3661;53.288;10.458;2022-10-31T11:07:04;34.30;;;32.90;;
7239;SDS011;3661;53.288;10.458;2022-10-31T11:09:38;39.60;;;37.90;;
7239;SDS011;3661;53.288;10.458;2022-10-31T11:12:11;33.70;;;32.20;;
7239;SDS011;3661;53.288;10.458;2022-10-31T11:14:51;44.95;;;43.10;;
7239;SDS011;3661;53.288;10.458;2022-10-31T11:17:30;47.63;;;45.72;;
7239;SDS011;3661;53.288;10.458;2022-10-31T11:20:16;33.60;;;32.08;;
7239;SDS011;3661;53.288;10.458;2022-10-31T11:23:24;36.20;;;34.63;;
7239;SDS011;3661;53.288;10.458;2022-10-31T11:25:58;33.38;;;31.85;;
7239;SDS011;3661;53.288;10.458;2022-10-31T11:28:31;36.22;;;34.55;;
7239;SDS011;3661;53.288;10.458;2022-10-31T11:31:10;33.53;;;31.70;;
7239;SDS011;3661;53.288;10.458;2022-10-31T11:33:58;35.33;;;33.72;;
7239;SDS011;3661;53.288;10.458;2022-10-31T11:36:35;36.83;;;35.42;;
7239;SDS011;3661;53.288;10.458;2022-10-31T11:39:14;32.42;;;30.92;;
7239;SDS011;3661;53.288;10.458;2022-10-31T11:41:50;30.73;;;29.33;;
7239;SDS011;3661;53.288;10.458;2022-10-31T11:44:25;31.00;;;29.65;;
7239;SDS011;3661;53.288;10.458;2022-10-31T11:47:00;29.37;;;28.03;;
7239;SDS011;3661;53.288;10.458;2022-10-31T11:49:35;28.25;;;26.95;;
7239;SDS011;3661;53.288;10.458;2022-10-31T11:52:12;38.38;;;36.78;;
7239;SDS011;3661;53.288;10.458;2022-10-31T11:54:50;31.75;;;30.50;;
7239;SDS011;3661;53.288;10.458;2022-10-31T11:57:25;31.80;;;30.48;;
7239;SDS011;3661;53.288;10.458;2022-10-31T12:00:00;24.60;;;23.50;;
7239;SDS011;3661;53.288;10.458;2022-10-31T12:02:34;34.38;;;32.97;;
7239;SDS011;3661;53.288;10.458;2022-10-31T12:05:07;24.92;;;23.83;;
7239;SDS011;3661;53.288;10.458;2022-10-31T12:07:50;29.63;;;28.20;;
7239;SDS011;3661;53.288;10.458;2022-10-31T12:10:24;27.73;;;26.42;;
7239;SDS011;3661;53.288;10.458;2022-10-31T12:13:05;24.75;;;23.55;;
7239;SDS011;3661;53.288;10.458;2022-10-31T12:15:50;32.60;;;31.27;;
7239;SDS011;3661;53.288;10.458;2022-10-31T12:18:33;32.17;;;30.67;;
7239;SDS011;3661;53.288;10.458;2022-10-31T12:21:16;25.58;;;24.25;;
7239;SDS011;3661;53.288;10.458;2022-10-31T12:23:57;27.45;;;25.95;;
7239;SDS011;3661;53.288;10.458;2022-10-31T12:26:39;25.77;;;24.67;;
7239;SDS011;3661;53.288;10.458;2022-10-31T12:29:23;29.60;;;28.42;;
7239;SDS011;3661;53.288;10.458;2022-10-31T12:32:15;24.98;;;23.75;;
7239;SDS011;3661;53.288;10.458;2022-10-31T12:35:05;23.23;;;21.70;;
7239;SDS011;3661;53.288;10.458;2022-10-31T12:37:53;21.83;;;20.83;;
7239;SDS011;3661;53.288;10.458;2022-10-31T12:40:47;20.15;;;19.13;;
7239;SDS011;3661;53.288;10.458;2022-10-31T12:43:36;24.48;;;23.50;;
7239;SDS011;3661;53.288;10.458;2022-10-31T12:46:21;26.92;;;25.88;;
7239;SDS011;3661;53.288;10.458;2022-10-31T12:49:12;20.17;;;19.27;;
7239;SDS011;3661;53.288;10.458;2022-10-31T12:52:02;19.77;;;18.73;;
7239;SDS011;3661;53.288;10.458;2022-10-31T12:54:50;30.13;;;28.80;;
7239;SDS011;3661;53.288;10.458;2022-10-31T12:57:33;27.27;;;26.30;;
7239;SDS011;3661;53.288;10.458;2022-10-31T13:00:12;21.98;;;21.08;;
7239;SDS011;3661;53.288;10.458;2022-10-31T13:02:49;21.85;;;20.75;;
7239;SDS011;3661;53.288;10.458;2022-10-31T13:05:26;19.73;;;18.70;;
7239;SDS011;3661;53.288;10.458;2022-10-31T13:08:04;27.38;;;26.45;;
7239;SDS011;3661;53.288;10.458;2022-10-31T13:10:41;20.27;;;19.27;;
7239;SDS011;3661;53.288;10.458;2022-10-31T13:13:21;29.45;;;28.20;;
7239;SDS011;3661;53.288;10.458;2022-10-31T13:16:00;22.67;;;21.67;;
7239;SDS011;3661;53.288;10.458;2022-10-31T13:18:38;20.17;;;19.27;;
7239;SDS011;3661;53.288;10.458;2022-10-31T13:21:16;19.40;;;18.50;;
7239;SDS011;3661;53.288;10.458;2022-10-31T13:23:53;18.40;;;17.60;;
7239;SDS011;3661;53.288;10.458;2022-10-31T13:26:32;18.15;;;17.25;;
7239;SDS011;3661;53.288;10.458;2022-10-31T13:29:11;21.50;;;20.60;;
7239;SDS011;3661;53.288;10.458;2022-10-31T13:31:50;20.50;;;19.50;;
7239;SDS011;3661;53.288;10.458;2022-10-31T13:34:24;19.90;;;19.10;;
7239;SDS011;3661;53.288;10.458;2022-10-31T13:37:00;18.98;;;18.15;;
7239;SDS011;3661;53.288;10.458;2022-10-31T13:39:49;17.70;;;16.80;;
7239;SDS011;3661;53.288;10.458;2022-10-31T13:42:37;21.05;;;20.25;;
7239;SDS011;3661;53.288;10.458;2022-10-31T13:45:19;18.70;;;17.90;;
7239;SDS011;3661;53.288;10.458;2022-10-31T13:47:58;16.67;;;15.80;;
7239;SDS011;3661;53.288;10.458;2022-10-31T13:50:32;15.48;;;14.68;;
7239;SDS011;3661;53.288;10.458;2022-10-31T13:53:11;18.38;;;17.13;;
7239;SDS011;3661;53.288;10.458;2022-10-31T13:55:44;23.15;;;22.13;;
7239;SDS011;3661;53.288;10.458;2022-10-31T13:58:22;15.83;;;15.03;;
7239;SDS011;3661;53.288;10.458;2022-10-31T14:01:13;22.88;;;21.73;;
7239;SDS011;3661;53.288;10.458;2022-10-31T14:03:55;20.23;;;19.48;;
7239;SDS011;3661;53.288;10.458;2022-10-31T14:06:34;26.20;;;25.10;;
7239;SDS011;3661;53.288;10.458;2022-10-31T14:09:21;27.80;;;26.42;;
7239;SDS011;3661;53.288;10.458;2022-10-31T14:12:04;24.20;;;23.17;;
7239;SDS011;3661;53.288;10.458;2022-10-31T14:14:46;24.57;;;23.27;;
7239;SDS011;3661;53.288;10.458;2022-10-31T14:17:23;25.45;;;24.15;;
7239;SDS011;3661;53.288;10.458;2022-10-31T14:20:03;25.48;;;24.27;;
7239;SDS011;3661;53.288;10.458;2022-10-31T14:26:18;21.23;;;20.30;;
7239;SDS011;3661;53.288;10.458;2022-10-31T14:28:53;21.27;;;20.33;;
7239;SDS011;3661;53.288;10.458;2022-10-31T14:31:27;24.83;;;23.88;;
7239;SDS011;3661;53.288;10.458;2022-10-31T14:34:19;19.20;;;18.33;;
7239;SDS011;3661;53.288;10.458;2022-10-31T14:39:59;21.70;;;20.73;;
7239;SDS011;3661;53.288;10.458;2022-10-31T14:42:51;23.17;;;22.38;;
7239;SDS011;3661;53.288;10.458;2022-10-31T14:45:38;22.45;;;21.55;;
7239;SDS011;3661;53.288;10.458;2022-10-31T14:48:23;23.92;;;22.73;;
7239;SDS011;3661;53.288;10.458;2022-10-31T14:51:08;26.02;;;24.73;;
7239;SDS011;3661;53.288;10.458;2022-10-31T14:54:04;22.27;;;21.38;;
7239;SDS011;3661;53.288;10.458;2022-10-31T14:56:41;20.33;;;19.42;;
7239;SDS011;3661;53.288;10.458;2022-10-31T14:59:21;17.52;;;16.63;;
7239;SDS011;3661;53.288;10.458;2022-10-31T15:02:09;21.35;;;20.20;;
7239;SDS011;3661;53.288;10.458;2022-10-31T15:04:47;20.55;;;19.58;;
7239;SDS011;3661;53.288;10.458;2022-10-31T15:07:32;26.77;;;25.58;;
7239;SDS011;3661;53.288;10.458;2022-10-31T15:10:31;27.67;;;25.77;;
7239;SDS011;3661;53.288;10.458;2022-10-31T15:13:08;20.58;;;19.77;;
7239;SDS011;3661;53.288;10.458;2022-10-31T15:15:41;19.58;;;18.63;;
7239;SDS011;3661;53.288;10.458;2022-10-31T15:18:14;20.25;;;19.25;;
7239;SDS011;3661;53.288;10.458;2022-10-31T15:20:48;23.05;;;21.95;;
7239;SDS011;3661;53.288;10.458;2022-10-31T15:23:23;21.85;;;20.95;;
7239;SDS011;3661;53.288;10.458;2022-10-31T15:26:01;22.10;;;21.02;;
7239;SDS011;3661;53.288;10.458;2022-10-31T15:28:35;24.60;;;23.42;;
7239;SDS011;3661;53.288;10.458;2022-10-31T15:31:12;28.17;;;26.60;;
7239;SDS011;3661;53.288;10.458;2022-10-31T15:33:46;28.27;;;26.75;;
7239;SDS011;3661;53.288;10.458;2022-10-31T15:36:21;25.35;;;24.05;;
7239;SDS011;3661;53.288;10.458;2022-10-31T15:38:55;28.52;;;27.00;;
7239;SDS011;3661;53.288;10.458;2022-10-31T15:41:30;29.20;;;27.50;;
7239;SDS011;3661;53.288;10.458;2022-10-31T15:44:07;33.47;;;31.58;;
7239;SDS011;3661;53.288;10.458;2022-10-31T15:46:51;33.42;;;31.73;;
7239;SDS011;3661;53.288;10.458;2022-10-31T15:49:29;31.98;;;30.10;;
7239;SDS011;3661;53.288;10.458;2022-10-31T15:52:06;33.80;;;31.90;;